Snicarte, Illinois
Current Conditions -  °F | °C
As of 4:15 AM on Thursday 27 Nov 2014 (Local Time) from KIJX Reporting Station
Haze Haze  
Wind Chill: 19°   Ceiling: 1800
Heat Index: 26°   Visibility: 5mi
Dew Point: 23°   Wind: 7mph
Humidity: 87%   Direction: 280°W
Pressure: 30.37"   Gusts: NA
Location:  40.1345°N, 90.1653°W
Report Text: KIJX 271015Z AUTO 28006KT 5SM BR OVC018 M03/M05 A3037 RMK AO2 T10321051
Loading
Personal Weather Stations






























Interactive Weather Map New forecast layout! Learn more

10-Day Weather Forecast

Advertisements
Track Severe Weather on mobile